Time;durP1;ratioP1;P1;durP2;ratioP2;P2;SDS_P1;SDS_P2;PMS_P1;PMS_P2;Temp;Humidity;BMP_temperature;BMP_pressure;BME280_temperature;BME280_humidity;BME280_pressure;Samples;Min_cycle;Max_cycle;Signal;HPM_P1;HPM_P2
2021/07/02 04:00:58;;;;;;;9.40;8.40;;;15.30;99.90;;;;;;5717340;23;20545;-67
2021/07/02 04:03:25;;;;;;;11.37;8.63;;;15.30;99.90;;;;;;4976509;28;20459;-67
2021/07/02 04:05:51;;;;;;;11.80;8.40;;;15.40;99.90;;;;;;4975975;28;20485;-67
2021/07/02 04:08:18;;;;;;;9.00;8.10;;;15.40;99.90;;;;;;4976043;28;20463;-67
2021/07/02 04:10:45;;;;;;;10.87;8.30;;;15.40;99.90;;;;;;4975691;28;20478;-67
2021/07/02 04:13:12;;;;;;;13.00;7.90;;;15.40;99.90;;;;;;4975657;28;20459;-67
2021/07/02 04:15:39;;;;;;;9.90;8.87;;;15.50;99.90;;;;;;4975730;28;20462;-67
2021/07/02 04:18:09;;;;;;;10.13;8.00;;;15.60;99.90;;;;;;4975635;28;20458;-67
2021/07/02 04:20:37;;;;;;;11.70;8.40;;;15.50;99.90;;;;;;4975599;28;20486;-67
2021/07/02 04:23:04;;;;;;;13.53;8.97;;;15.60;99.90;;;;;;4975675;28;20941;-67
2021/07/02 04:25:31;;;;;;;9.03;8.23;;;15.60;99.90;;;;;;4982332;28;20459;-67
2021/07/02 04:27:58;;;;;;;9.13;8.23;;;15.70;99.90;;;;;;4976863;28;20506;-68
2021/07/02 04:30:25;;;;;;;9.47;8.57;;;15.70;99.90;;;;;;4975431;28;20461;-66
2021/07/02 04:32:51;;;;;;;9.63;8.67;;;15.70;99.90;;;;;;4975623;28;20473;-67
2021/07/02 04:35:19;;;;;;;10.20;9.00;;;15.80;99.90;;;;;;4975323;28;20958;-67
2021/07/02 04:37:46;;;;;;;9.40;7.90;;;15.80;99.90;;;;;;4975366;28;20447;-65
2021/07/02 04:40:14;;;;;;;9.30;8.50;;;15.80;99.90;;;;;;4975064;28;20965;-66
2021/07/02 04:42:41;;;;;;;8.53;7.83;;;15.80;99.90;;;;;;4975237;28;20459;-66
2021/07/02 04:45:08;;;;;;;9.93;8.93;;;15.80;99.90;;;;;;4975076;28;20490;-65
2021/07/02 04:47:35;;;;;;;10.40;9.40;;;15.90;99.90;;;;;;4975133;28;20483;-66
2021/07/02 04:50:02;;;;;;;10.13;9.13;;;16.00;99.90;;;;;;4974806;28;20954;-65
2021/07/02 04:52:30;;;;;;;10.57;9.50;;;16.00;99.90;;;;;;4975035;28;20478;-65
2021/07/02 04:54:56;;;;;;;13.43;8.83;;;16.10;99.90;;;;;;4975087;28;20455;-66
2021/07/02 04:57:23;;;;;;;10.03;9.10;;;16.20;99.90;;;;;;4975096;28;20454;-66
2021/07/02 04:59:51;;;;;;;9.13;8.10;;;16.30;99.90;;;;;;4975152;28;20454;-66
2021/07/02 05:02:17;;;;;;;11.53;8.73;;;16.30;99.90;;;;;;4978836;28;20536;-66
2021/07/02 05:04:44;;;;;;;9.13;8.23;;;16.40;99.90;;;;;;4978745;28;20958;-66
2021/07/02 05:07:13;;;;;;;9.20;8.30;;;16.50;99.90;;;;;;4978807;28;20485;-66
2021/07/02 05:09:41;;;;;;;9.43;8.53;;;16.70;99.90;;;;;;4978978;28;20482;-66
2021/07/02 05:12:10;;;;;;;9.07;8.17;;;16.70;99.90;;;;;;4978959;28;20987;-66
2021/07/02 05:14:37;;;;;;;9.43;8.53;;;16.80;99.90;;;;;;4978687;28;20459;-66
2021/07/02 05:17:05;;;;;;;9.07;8.17;;;16.80;99.90;;;;;;4978391;28;20482;-66
2021/07/02 05:19:31;;;;;;;9.50;8.60;;;16.90;99.90;;;;;;4978604;28;20545;-66
2021/07/02 05:21:58;;;;;;;11.10;8.50;;;16.80;99.90;;;;;;4978272;28;20481;-66
2021/07/02 05:24:25;;;;;;;9.27;8.37;;;16.70;99.90;;;;;;4978520;28;20458;-66
2021/07/02 05:26:53;;;;;;;12.80;9.13;;;16.70;99.90;;;;;;4978444;28;20474;-66
2021/07/02 05:29:19;;;;;;;10.90;9.83;;;16.70;99.90;;;;;;4978384;28;20819;-66
2021/07/02 05:31:46;;;;;;;9.13;8.30;;;16.70;99.90;;;;;;4977990;28;20985;-66
2021/07/02 05:34:13;;;;;;;11.93;9.27;;;16.80;99.90;;;;;;4978293;28;20466;-67
2021/07/02 05:36:40;;;;;;;9.33;8.43;;;16.90;99.90;;;;;;4978651;28;20446;-66
2021/07/02 05:39:06;;;;;;;9.07;8.27;;;17.00;99.90;;;;;;4978468;28;20458;-66
2021/07/02 05:41:33;;;;;;;9.80;9.00;;;17.20;99.90;;;;;;4978465;28;20478;-66
2021/07/02 05:44:01;;;;;;;8.63;7.93;;;17.20;99.90;;;;;;4978205;28;20438;-66
2021/07/02 05:46:29;;;;;;;11.83;8.47;;;17.30;99.90;;;;;;4978289;28;20824;-66
2021/07/02 05:48:55;;;;;;;9.70;8.80;;;17.40;99.90;;;;;;4978519;28;20530;-66
2021/07/02 05:51:22;;;;;;;8.80;7.90;;;17.50;99.90;;;;;;4978179;28;20475;-66
2021/07/02 05:53:49;;;;;;;9.40;8.60;;;17.40;99.90;;;;;;4978039;28;20443;-66
2021/07/02 05:56:16;;;;;;;9.90;8.17;;;17.30;99.90;;;;;;4980876;28;20457;-66
2021/07/02 05:58:43;;;;;;;9.33;8.10;;;17.40;99.90;;;;;;4979541;28;20942;-65
2021/07/02 06:01:11;;;;;;;12.83;8.10;;;17.40;99.90;;;;;;4977730;28;20518;-65
2021/07/02 06:03:38;;;;;;;9.80;8.90;;;17.40;99.90;;;;;;4978023;28;20517;-65
2021/07/02 06:06:04;;;;;;;11.07;8.27;;;17.50;99.90;;;;;;4978026;28;20458;-65
2021/07/02 06:08:31;;;;;;;11.03;8.73;;;17.50;99.90;;;;;;4978214;28;20474;-65
2021/07/02 06:10:59;;;;;;;9.27;8.37;;;17.50;99.90;;;;;;4977712;28;20474;-65
2021/07/02 06:13:26;;;;;;;11.07;7.60;;;17.60;99.90;;;;;;4977728;28;20494;-65
2021/07/02 06:15:52;;;;;;;9.40;8.50;;;17.70;99.90;;;;;;4977743;28;20459;-66
2021/07/02 06:18:20;;;;;;;9.40;8.00;;;17.80;99.90;;;;;;4977660;28;20454;-66
2021/07/02 06:20:51;;;;;;;8.50;7.70;;;17.90;99.90;;;;;;4977678;28;20479;-66
2021/07/02 06:23:18;;;;;;;9.63;8.57;;;18.20;99.90;;;;;;4977793;28;20497;-66
2021/07/02 06:25:45;;;;;;;7.70;6.93;;;18.40;99.90;;;;;;4977311;28;20458;-65
2021/07/02 06:28:11;;;;;;;8.83;8.03;;;18.60;99.90;;;;;;4977492;28;20485;-64
2021/07/02 06:30:38;;;;;;;10.57;8.27;;;18.70;99.90;;;;;;4977429;28;20485;-64
2021/07/02 06:33:05;;;;;;;10.00;8.87;;;19.00;99.90;;;;;;4977639;28;20454;-64
2021/07/02 06:35:33;;;;;;;8.17;7.47;;;19.40;99.90;;;;;;4977692;28;20864;-65
2021/07/02 06:38:00;;;;;;;9.43;8.53;;;19.70;99.90;;;;;;4977160;28;20451;-65
2021/07/02 06:40:28;;;;;;;8.97;8.27;;;19.80;99.90;;;;;;4977544;28;20937;-65
2021/07/02 06:42:55;;;;;;;8.33;7.60;;;20.10;99.90;;;;;;4977497;28;20459;-65
2021/07/02 06:45:21;;;;;;;7.33;6.63;;;20.30;99.90;;;;;;4978008;28;20443;-65
2021/07/02 06:47:52;;;;;;;8.07;7.20;;;20.50;99.90;;;;;;4977286;28;20478;-65
2021/07/02 06:50:19;;;;;;;7.83;7.23;;;20.60;99.90;;;;;;4977340;28;20443;-65
2021/07/02 06:52:47;;;;;;;7.13;6.60;;;20.90;99.90;;;;;;4977247;28;20459;-65
2021/07/02 06:55:14;;;;;;;11.07;6.63;;;21.00;99.90;;;;;;4977132;28;20463;-66
2021/07/02 06:57:41;;;;;;;7.83;6.70;;;21.10;99.90;;;;;;4977334;28;20459;-64
2021/07/02 07:00:08;;;;;;;10.10;7.30;;;21.10;99.90;;;;;;4977054;28;20455;-64
2021/07/02 07:02:35;;;;;;;6.70;6.10;;;21.70;99.90;;;;;;4976441;28;20482;-64
2021/07/02 07:05:02;;;;;;;6.17;5.77;;;22.20;99.90;;;;;;4977871;28;20486;-64
2021/07/02 07:07:29;;;;;;;7.03;6.40;;;23.00;99.90;;;;;;4976819;28;20482;-64
2021/07/02 07:09:57;;;;;;;6.17;5.60;;;23.40;99.90;;;;;;4976886;28;20462;-65
2021/07/02 07:12:23;;;;;;;5.63;4.97;;;24.10;99.90;;;;;;4976779;28;20476;-64
2021/07/02 07:14:50;;;;;;;6.57;6.07;;;24.60;99.90;;;;;;4976678;28;20459;-64
2021/07/02 07:17:17;;;;;;;4.97;4.50;;;25.30;99.90;;;;;;4976748;28;20454;-63
2021/07/02 07:19:44;;;;;;;5.53;5.13;;;25.80;99.90;;;;;;4976959;28;20462;-63
2021/07/02 07:22:11;;;;;;;5.40;5.00;;;26.40;99.90;;;;;;4976548;28;20498;-63
2021/07/02 07:24:37;;;;;;;5.33;4.90;;;26.50;99.70;;;;;;4976183;28;20455;-63
2021/07/02 07:27:07;;;;;;;5.63;5.23;;;26.50;99.30;;;;;;4979830;28;20826;-63
2021/07/02 07:29:33;;;;;;;5.87;5.37;;;26.10;99.90;;;;;;4985255;28;20925;-63
2021/07/02 07:32:01;;;;;;;6.50;5.10;;;26.00;99.80;;;;;;4976435;28;20481;-63
2021/07/02 07:34:33;;;;;;;5.30;4.83;;;26.40;99.90;;;;;;4976441;28;20455;-63
2021/07/02 07:37:03;;;;;;;5.20;4.80;;;26.30;99.20;;;;;;4976781;28;20447;-63
2021/07/02 07:39:30;;;;;;;7.83;5.23;;;26.20;98.10;;;;;;4976648;28;20467;-63
2021/07/02 07:41:56;;;;;;;6.53;5.30;;;25.80;99.20;;;;;;4976090;28;20485;-63
2021/07/02 07:44:24;;;;;;;6.30;5.70;;;25.50;99.90;;;;;;4976391;28;20534;-63
2021/07/02 07:46:51;;;;;;;5.60;5.10;;;25.20;99.90;;;;;;4976226;28;20458;-62
2021/07/02 07:49:18;;;;;;;5.50;5.10;;;25.10;99.90;;;;;;4976404;28;20450;-63
2021/07/02 07:51:48;;;;;;;5.47;5.07;;;25.60;99.50;;;;;;4976298;28;20470;-63
2021/07/02 07:54:15;;;;;;;6.20;5.67;;;26.10;99.10;;;;;;4976146;28;20439;-63
2021/07/02 07:56:50;;;;;;;5.70;4.93;;;26.70;96.50;;;;;;4976199;28;20461;-64
2021/07/02 07:59:17;;;;;;;5.00;4.70;;;27.50;94.90;;;;;;4976204;28;20442;-64
2021/07/02 08:01:45;;;;;;;6.60;6.00;;;27.70;93.70;;;;;;4975579;28;20482;-63
2021/07/02 08:04:14;;;;;;;6.00;5.50;;;27.70;93.10;;;;;;4975934;28;20462;-64
2021/07/02 08:06:41;;;;;;;6.13;5.73;;;28.20;92.90;;;;;;4975901;28;20929;-64
2021/07/02 08:09:08;;;;;;;5.23;4.50;;;28.00;90.90;;;;;;4975594;28;20463;-63
2021/07/02 08:11:34;;;;;;;5.40;5.00;;;27.80;90.70;;;;;;4975592;28;20475;-63
2021/07/02 08:14:01;;;;;;;5.87;5.47;;;27.30;90.90;;;;;;4975685;28;20458;-63
2021/07/02 08:16:28;;;;;;;6.10;5.70;;;27.00;93.20;;;;;;4976007;28;20462;-64
2021/07/02 08:18:56;;;;;;;6.07;5.57;;;27.40;89.80;;;;;;4975864;28;20447;-63
2021/07/02 08:21:23;;;;;;;5.40;5.10;;;27.50;91.40;;;;;;4975758;28;20485;-64
2021/07/02 08:23:50;;;;;;;5.67;5.20;;;28.20;87.10;;;;;;4975711;28;20466;-64
2021/07/02 08:26:17;;;;;;;7.30;6.60;;;27.90;88.70;;;;;;4975668;28;20442;-63
2021/07/02 08:31:29;;;;;;;6.60;5.57;;;27.40;88.50;;;;;;4975527;28;20465;-63
2021/07/02 08:33:57;;;;;;;5.87;5.37;;;27.30;82.30;;;;;;4975596;28;20463;-63
2021/07/02 08:36:24;;;;;;;5.97;5.57;;;28.00;89.50;;;;;;4975493;28;20461;-63
2021/07/02 08:38:50;;;;;;;5.73;5.23;;;28.00;82.30;;;;;;4976555;28;20447;-63
2021/07/02 08:41:17;;;;;;;5.27;4.87;;;28.40;80.90;;;;;;4979795;28;20474;-63
2021/07/02 08:43:47;;;;;;;6.17;5.63;;;29.00;79.50;;;;;;4978592;28;20458;-63
2021/07/02 08:46:19;;;;;;;6.53;5.50;;;29.70;82.50;;;;;;4979158;28;20461;-63
2021/07/02 08:48:48;;;;;;;5.70;5.27;;;29.50;82.30;;;;;;4979528;28;20463;-63
2021/07/02 08:51:16;;;;;;;5.87;5.43;;;29.60;80.60;;;;;;4980024;28;20978;-63
2021/07/02 08:53:43;;;;;;;6.40;5.90;;;28.80;81.60;;;;;;4978625;28;20458;-63
2021/07/02 08:56:10;;;;;;;6.43;5.93;;;29.20;81.70;;;;;;4977808;28;20942;-64
2021/07/02 08:58:37;;;;;;;6.73;6.20;;;29.00;78.30;;;;;;4978919;28;20451;-64
2021/07/02 09:01:07;;;;;;;7.37;6.67;;;28.10;80.10;;;;;;4978336;28;20490;-63
2021/07/02 09:03:36;;;;;;;6.70;6.20;;;27.50;83.80;;;;;;4975300;28;20911;-64
2021/07/02 09:06:14;;;;;;;8.47;6.27;;;26.80;84.20;;;;;;4975499;28;20490;-64
2021/07/02 09:08:58;;;;;;;6.50;6.00;;;26.70;82.10;;;;;;4975174;28;20566;-65
2021/07/02 09:11:26;;;;;;;6.37;5.87;;;26.90;84.40;;;;;;4974940;28;20830;-64
2021/07/02 09:13:53;;;;;;;6.50;6.00;;;27.30;85.00;;;;;;4975552;28;20462;-64
2021/07/02 09:16:24;;;;;;;6.10;5.70;;;28.00;85.10;;;;;;4975128;28;20450;-64
2021/07/02 09:18:51;;;;;;;7.10;6.40;;;28.30;80.90;;;;;;4975178;28;20458;-64
2021/07/02 09:21:25;;;;;;;6.67;5.93;;;27.90;78.80;;;;;;4975015;28;20474;-64
2021/07/02 09:23:57;;;;;;;6.13;5.73;;;27.60;82.70;;;;;;4975046;28;20461;-64
2021/07/02 09:26:37;;;;;;;6.10;5.60;;;27.80;83.20;;;;;;4974929;28;20530;-65
2021/07/02 09:29:16;;;;;;;6.27;5.57;;;28.10;82.40;;;;;;4975030;28;20466;-64
2021/07/02 09:31:43;;;;;;;6.77;6.27;;;28.30;79.60;;;;;;4974869;28;20510;-64
2021/07/02 09:34:09;;;;;;;6.00;5.43;;;29.00;78.30;;;;;;4974818;28;20459;-64
2021/07/02 09:36:36;;;;;;;5.97;5.47;;;29.30;80.20;;;;;;4974943;28;20481;-64
2021/07/02 09:39:29;;;;;;;5.87;5.30;;;30.00;76.20;;;;;;4975117;28;20823;-64
2021/07/02 09:41:55;;;;;;;5.70;5.30;;;30.60;70.00;;;;;;4974633;28;20992;-64
2021/07/02 09:44:22;;;;;;;6.10;5.70;;;31.10;67.60;;;;;;4975072;28;20462;-65
2021/07/02 09:46:49;;;;;;;5.90;5.50;;;31.40;71.40;;;;;;4976743;28;20455;-64
2021/07/02 09:49:25;;;;;;;6.97;5.90;;;31.60;69.60;;;;;;4978327;28;20993;-64
2021/07/02 09:51:52;;;;;;;6.67;5.77;;;32.00;65.90;;;;;;4978915;28;20502;-64
2021/07/02 09:54:20;;;;;;;5.60;5.13;;;31.60;64.50;;;;;;4978770;28;20461;-63
2021/07/02 09:56:47;;;;;;;6.73;6.13;;;31.90;65.20;;;;;;4978865;28;20459;-64
2021/07/02 09:59:17;;;;;;;6.80;6.30;;;32.00;62.90;;;;;;4978692;28;20454;-64
2021/07/02 10:01:44;;;;;;;6.00;5.60;;;31.70;63.30;;;;;;4978124;28;20894;-64
2021/07/02 10:04:11;;;;;;;6.00;5.60;;;31.60;63.70;;;;;;4978639;28;20467;-65
2021/07/02 10:06:38;;;;;;;6.13;5.63;;;31.70;65.60;;;;;;4978195;28;20544;-65
2021/07/02 10:09:06;;;;;;;10.60;5.63;;;32.30;63.30;;;;;;4978139;28;20482;-66
2021/07/02 10:11:37;;;;;;;4.90;4.60;;;32.70;62.20;;;;;;4981767;28;20506;-65
2021/07/02 10:14:04;;;;;;;5.47;5.17;;;32.90;59.00;;;;;;4981432;28;20439;-65
2021/07/02 10:16:31;;;;;;;5.63;5.23;;;32.40;57.30;;;;;;4981973;28;20455;-65
2021/07/02 10:19:00;;;;;;;6.03;5.53;;;31.60;58.10;;;;;;4980936;28;20522;-65
2021/07/02 10:21:27;;;;;;;5.63;5.17;;;31.70;57.90;;;;;;4981648;28;20478;-64
2021/07/02 10:23:56;;;;;;;5.70;5.30;;;31.80;58.50;;;;;;4981597;28;20451;-65
2021/07/02 10:26:25;;;;;;;6.20;5.60;;;31.80;57.40;;;;;;4980032;28;20477;-65
2021/07/02 10:28:54;;;;;;;5.63;5.00;;;31.50;59.70;;;;;;4978214;28;20485;-65
2021/07/02 10:31:21;;;;;;;5.23;4.93;;;31.80;57.60;;;;;;4977874;28;21008;-65
2021/07/02 10:33:50;;;;;;;6.70;5.33;;;32.00;56.10;;;;;;4977716;28;20945;-65
2021/07/02 10:36:18;;;;;;;4.80;4.40;;;32.00;58.20;;;;;;4977989;28;20525;-65
2021/07/02 10:38:46;;;;;;;5.33;4.93;;;32.40;55.60;;;;;;4978975;28;20454;-65
2021/07/02 10:41:15;;;;;;;5.70;5.27;;;32.20;54.60;;;;;;4977743;28;20474;-66
2021/07/02 10:44:06;;;;;;;5.87;5.43;;;32.40;53.80;;;;;;4978139;28;20930;-65
2021/07/02 10:46:34;;;;;;;6.27;5.80;;;32.30;57.20;;;;;;4977505;28;20458;-65
2021/07/02 10:49:03;;;;;;;6.00;5.60;;;32.40;56.80;;;;;;4977205;28;21044;-65
2021/07/02 10:51:50;;;;;;;5.73;5.43;;;31.90;57.20;;;;;;4977183;28;20478;-65
2021/07/02 10:54:30;;;;;;;5.40;5.00;;;31.70;55.70;;;;;;4977179;28;20952;-65
2021/07/02 10:57:17;;;;;;;5.40;5.00;;;31.90;56.10;;;;;;4976920;28;20458;-63
2021/07/02 11:00:18;;;;;;;5.80;5.30;;;32.20;57.00;;;;;;4977063;28;20505;-64
2021/07/02 11:02:46;;;;;;;5.03;4.73;;;32.30;55.50;;;;;;4977154;28;20441;-64
2021/07/02 11:05:34;;;;;;;5.80;5.40;;;32.70;54.40;;;;;;4977152;28;20450;-64
2021/07/02 11:08:01;;;;;;;6.27;5.87;;;32.70;56.00;;;;;;4977020;28;20891;-65
2021/07/02 11:10:59;;;;;;;6.37;5.87;;;32.10;55.40;;;;;;4976962;28;20497;-65
2021/07/02 11:13:26;;;;;;;6.20;5.80;;;31.50;59.90;;;;;;4976909;28;20865;-65
2021/07/02 11:16:08;;;;;;;5.63;5.23;;;31.60;58.20;;;;;;4976767;28;20455;-64
2021/07/02 11:18:42;;;;;;;7.00;5.13;;;31.00;56.70;;;;;;4976917;28;20435;-64
2021/07/02 11:21:16;;;;;;;6.47;5.97;;;30.90;59.80;;;;;;4976851;28;20477;-64
2021/07/02 11:23:43;;;;;;;5.50;5.10;;;30.50;54.40;;;;;;4976815;28;20453;-64
2021/07/02 11:26:48;;;;;;;5.80;5.40;;;30.50;58.70;;;;;;4976668;28;20478;-63
2021/07/02 11:29:17;;;;;;;5.57;5.17;;;30.50;58.90;;;;;;4976921;28;20848;-64
2021/07/02 11:31:44;;;;;;;5.40;5.10;;;30.10;58.50;;;;;;4976223;28;20982;-64
2021/07/02 11:34:17;;;;;;;7.03;5.77;;;29.40;59.00;;;;;;4976591;28;20809;-64
2021/07/02 11:37:10;;;;;;;5.67;5.27;;;29.00;59.40;;;;;;4977545;28;20521;-65
2021/07/02 11:39:38;;;;;;;8.57;5.73;;;28.70;58.70;;;;;;4976492;28;20482;-65
2021/07/02 11:42:12;;;;;;;7.13;6.53;;;28.60;61.50;;;;;;4976083;28;21051;-65
2021/07/02 11:44:40;;;;;;;5.90;5.40;;;28.50;59.80;;;;;;4976392;28;20446;-64
2021/07/02 11:47:06;;;;;;;6.00;5.60;;;28.20;60.40;;;;;;4976808;28;20459;-64
2021/07/02 11:49:44;;;;;;;5.97;5.57;;;28.50;72.00;;;;;;4976681;28;20474;-64
2021/07/02 11:52:10;;;;;;;6.33;5.93;;;28.50;59.30;;;;;;4987099;28;20973;-63
2021/07/02 11:54:49;;;;;;;5.20;4.90;;;28.30;58.60;;;;;;4985957;28;20454;-63
2021/07/02 11:57:25;;;;;;;12.03;6.37;;;28.20;64.40;;;;;;4985196;28;20625;-64
2021/07/02 11:59:59;;;;;;;5.57;5.20;;;28.10;65.10;;;;;;4985257;28;20445;-63
2021/07/02 12:02:27;;;;;;;7.30;6.47;;;28.00;59.60;;;;;;4984963;28;20496;-64
2021/07/02 12:05:05;;;;;;;6.20;5.70;;;28.00;65.30;;;;;;4985154;28;20942;-64
2021/07/02 12:07:32;;;;;;;6.73;6.30;;;27.80;63.90;;;;;;4985259;28;20443;-63
2021/07/02 12:09:59;;;;;;;7.13;6.23;;;27.60;64.80;;;;;;4984835;28;20485;-64
2021/07/02 12:12:28;;;;;;;6.13;5.73;;;27.80;70.50;;;;;;4984967;28;20478;-63
2021/07/02 12:14:55;;;;;;;6.83;6.23;;;27.70;65.60;;;;;;4984178;28;20451;-64
2021/07/02 12:17:22;;;;;;;12.20;7.30;;;27.60;67.90;;;;;;4982505;28;20950;-65
2021/07/02 12:19:48;;;;;;;6.07;5.57;;;27.80;69.20;;;;;;4982892;28;21122;-64
2021/07/02 12:22:15;;;;;;;6.13;5.53;;;27.80;66.30;;;;;;4984825;28;20479;-64
2021/07/02 12:24:44;;;;;;;5.80;5.40;;;27.70;62.90;;;;;;4984079;28;20466;-64
2021/07/02 12:27:13;;;;;;;7.03;6.50;;;27.60;68.50;;;;;;4985376;28;20518;-64
2021/07/02 12:29:42;;;;;;;6.10;5.70;;;27.30;63.70;;;;;;4984027;28;20474;-64
2021/07/02 12:32:11;;;;;;;5.93;5.43;;;27.00;63.90;;;;;;4983970;28;20832;-64
2021/07/02 12:34:40;;;;;;;7.03;6.43;;;26.90;64.90;;;;;;4982911;28;20855;-64
2021/07/02 12:37:09;;;;;;;6.77;6.27;;;26.90;69.20;;;;;;4976323;28;20461;-65
2021/07/02 12:39:38;;;;;;;9.10;5.60;;;27.20;67.70;;;;;;4976485;28;20458;-64
2021/07/02 12:42:11;;;;;;;6.57;6.10;;;27.60;65.90;;;;;;4976773;28;20475;-64
2021/07/02 12:44:39;;;;;;;6.03;5.70;;;27.80;73.10;;;;;;4976990;28;20442;-64
2021/07/02 12:47:10;;;;;;;5.50;5.20;;;27.80;62.80;;;;;;4976657;28;20463;-64
2021/07/02 12:49:43;;;;;;;5.97;5.57;;;27.80;67.30;;;;;;4976277;28;20470;-64
2021/07/02 12:55:07;;;;;;;6.73;6.23;;;27.50;66.50;;;;;;4976226;28;20549;-64
2021/07/02 12:57:36;;;;;;;6.63;6.03;;;27.20;65.50;;;;;;4982539;28;20462;-64
2021/07/02 13:00:06;;;;;;;6.67;6.27;;;26.80;65.40;;;;;;4983703;28;20454;-64
2021/07/02 13:02:37;;;;;;;6.70;6.10;;;26.50;68.70;;;;;;4983487;28;20542;-65
2021/07/02 13:05:10;;;;;;;7.57;6.97;;;26.40;68.80;;;;;;4983430;28;20439;-65
2021/07/02 13:07:48;;;;;;;6.77;6.27;;;26.20;66.50;;;;;;4983262;28;20431;-64
2021/07/02 13:10:17;;;;;;;7.47;6.33;;;25.80;66.70;;;;;;4983418;28;20486;-64
2021/07/02 13:13:01;;;;;;;9.33;6.17;;;25.50;70.60;;;;;;4982666;28;20461;-64
2021/07/02 13:15:28;;;;;;;6.77;6.27;;;25.90;75.10;;;;;;4984501;28;20558;-64
2021/07/02 13:17:57;;;;;;;6.73;6.23;;;26.20;71.60;;;;;;4983737;28;20459;-64
2021/07/02 13:20:24;;;;;;;6.57;6.07;;;26.30;70.00;;;;;;4983444;28;20446;-64
2021/07/02 13:23:01;;;;;;;6.40;5.67;;;26.40;73.70;;;;;;4987018;28;20455;-64
2021/07/02 13:25:28;;;;;;;6.20;5.70;;;26.40;68.70;;;;;;4986999;28;20458;-64
2021/07/02 13:27:56;;;;;;;6.10;5.70;;;26.70;67.00;;;;;;4982178;28;20799;-64
2021/07/02 13:30:27;;;;;;;8.83;6.27;;;26.70;65.00;;;;;;4979097;28;20478;-64
2021/07/02 13:33:06;;;;;;;6.57;6.07;;;26.90;68.40;;;;;;4979159;28;20477;-64
2021/07/02 13:35:33;;;;;;;6.30;5.80;;;27.00;73.00;;;;;;4978776;28;20442;-64
2021/07/02 13:38:06;;;;;;;6.77;6.27;;;27.10;69.00;;;;;;4978546;28;20458;-64
2021/07/02 13:40:41;;;;;;;6.40;5.90;;;27.20;67.70;;;;;;4978403;28;20446;-64
2021/07/02 13:43:09;;;;;;;6.83;6.33;;;27.30;66.90;;;;;;4978647;28;20442;-64
2021/07/02 13:45:37;;;;;;;7.33;6.63;;;27.60;70.10;;;;;;4978579;28;20465;-64
2021/07/02 13:48:13;;;;;;;7.07;6.57;;;27.60;72.60;;;;;;4978633;28;20516;-64
2021/07/02 13:50:41;;;;;;;6.10;5.70;;;27.60;66.70;;;;;;4978475;28;20494;-64
2021/07/02 13:53:16;;;;;;;6.67;6.17;;;27.60;70.30;;;;;;4978666;28;20458;-64
2021/07/02 13:55:43;;;;;;;6.53;6.03;;;27.80;66.60;;;;;;4978350;28;20553;-64
2021/07/02 13:58:10;;;;;;;7.90;6.93;;;27.80;70.60;;;;;;4978468;28;20462;-64
2021/07/02 14:00:38;;;;;;;6.97;6.40;;;27.60;66.30;;;;;;4978001;28;20478;-64
2021/07/02 14:03:05;;;;;;;6.90;6.40;;;27.50;70.10;;;;;;4978322;28;20454;-64
2021/07/02 14:05:34;;;;;;;6.40;5.90;;;27.30;66.60;;;;;;4977982;28;20946;-64
2021/07/02 14:08:00;;;;;;;8.00;7.03;;;27.40;70.00;;;;;;4978351;28;20454;-64
2021/07/02 14:10:27;;;;;;;7.67;7.00;;;27.30;71.50;;;;;;4983598;28;20482;-64
2021/07/02 14:12:54;;;;;;;7.47;6.87;;;27.30;69.80;;;;;;4988024;28;20465;-64
2021/07/02 14:15:21;;;;;;;7.07;6.50;;;27.20;71.60;;;;;;4987400;28;20465;-64
2021/07/02 14:17:48;;;;;;;7.10;6.53;;;27.00;70.30;;;;;;4987129;28;20450;-64
2021/07/02 14:20:15;;;;;;;10.23;6.43;;;27.00;74.50;;;;;;4986437;28;20454;-63
2021/07/02 14:22:44;;;;;;;6.90;6.30;;;26.90;72.10;;;;;;4983138;28;20451;-63
2021/07/02 14:25:12;;;;;;;7.37;6.67;;;27.00;71.50;;;;;;4984321;28;20465;-63
2021/07/02 14:27:39;;;;;;;6.83;6.43;;;26.90;72.70;;;;;;4982946;28;20458;-63
2021/07/02 14:30:07;;;;;;;8.20;6.13;;;27.10;72.90;;;;;;4984735;28;20509;-63
2021/07/02 14:32:34;;;;;;;7.10;6.40;;;27.20;72.00;;;;;;4989687;28;20489;-63
2021/07/02 14:35:01;;;;;;;7.23;6.63;;;27.00;73.50;;;;;;4986981;28;20480;-63
2021/07/02 14:37:28;;;;;;;6.80;6.30;;;26.70;68.00;;;;;;4988055;28;20457;-63
2021/07/02 14:39:56;;;;;;;6.30;5.80;;;26.90;73.40;;;;;;4984931;28;20942;-63
2021/07/02 14:42:23;;;;;;;6.50;6.10;;;26.70;73.20;;;;;;4978375;28;20471;-64
2021/07/02 14:44:50;;;;;;;6.47;5.87;;;26.40;71.10;;;;;;4978772;28;20466;-64
2021/07/02 14:47:17;;;;;;;6.97;6.43;;;26.30;72.00;;;;;;4978976;28;20455;-64
2021/07/02 14:49:44;;;;;;;6.80;6.30;;;26.10;72.50;;;;;;4979709;28;20478;-63
2021/07/02 14:52:11;;;;;;;6.60;6.13;;;26.10;78.10;;;;;;4979885;28;20481;-64
2021/07/02 14:54:38;;;;;;;7.17;6.57;;;26.30;72.40;;;;;;4979912;28;20447;-64
2021/07/02 14:57:08;;;;;;;6.30;5.83;;;26.20;71.20;;;;;;4979671;28;20880;-64
2021/07/02 14:59:35;;;;;;;6.60;6.10;;;26.10;74.00;;;;;;4979839;28;20590;-63
2021/07/02 15:02:02;;;;;;;6.23;5.70;;;26.10;74.10;;;;;;4978713;28;20486;-64
2021/07/02 15:04:28;;;;;;;6.90;6.40;;;26.10;72.50;;;;;;4978999;28;20901;-63
2021/07/02 15:06:55;;;;;;;6.97;6.47;;;26.20;73.10;;;;;;4977760;28;20482;-64
2021/07/02 15:09:22;;;;;;;6.83;6.23;;;26.30;75.30;;;;;;4977910;28;20478;-64
2021/07/02 15:11:49;;;;;;;7.33;6.83;;;26.50;71.60;;;;;;4977192;28;20473;-63
2021/07/02 15:14:17;;;;;;;7.10;6.50;;;26.50;72.20;;;;;;4976712;28;20462;-63
2021/07/02 15:16:44;;;;;;;6.30;5.90;;;26.40;75.40;;;;;;4976839;28;20463;-64
2021/07/02 15:19:10;;;;;;;7.47;6.77;;;26.50;73.30;;;;;;4976678;28;20451;-63
2021/07/02 15:21:37;;;;;;;6.83;6.23;;;26.30;73.90;;;;;;4976820;28;20474;-64
2021/07/02 15:24:05;;;;;;;7.00;5.80;;;26.20;76.60;;;;;;4977029;28;20455;-63
2021/07/02 15:26:31;;;;;;;6.67;6.17;;;26.30;77.00;;;;;;4976760;28;20451;-64
2021/07/02 15:28:58;;;;;;;5.67;5.37;;;26.30;77.90;;;;;;4977413;28;20853;-62
2021/07/02 15:32:02;;;;;;;6.80;6.20;;;26.30;76.80;;;;;;4976969;28;20502;-62
2021/07/02 15:34:30;;;;;;;6.80;6.30;;;26.50;81.00;;;;;;4977395;28;20481;-62
2021/07/02 15:36:57;;;;;;;6.97;6.47;;;26.70;79.20;;;;;;4976388;28;20459;-62
2021/07/02 15:39:24;;;;;;;6.47;5.87;;;26.70;78.60;;;;;;4976497;28;20461;-63
2021/07/02 15:41:51;;;;;;;7.23;6.70;;;26.70;76.50;;;;;;4976495;28;20555;-63
2021/07/02 15:44:18;;;;;;;6.50;6.00;;;26.60;74.70;;;;;;4975906;28;20497;-63
2021/07/02 15:46:44;;;;;;;6.17;5.67;;;26.60;78.10;;;;;;4976343;28;20481;-63
2021/07/02 15:49:11;;;;;;;7.50;6.80;;;26.50;74.40;;;;;;4976390;28;20458;-63
2021/07/02 15:51:39;;;;;;;6.57;6.07;;;26.40;74.80;;;;;;4976347;28;20475;-63
2021/07/02 15:54:06;;;;;;;36.97;15.30;;;26.40;75.40;;;;;;4975983;28;20799;-62
2021/07/02 15:56:34;;;;;;;8.77;7.00;;;26.30;79.30;;;;;;4976097;28;20458;-64
2021/07/02 15:59:01;;;;;;;13.20;9.77;;;26.30;79.00;;;;;;4976123;28;20451;-64
2021/07/02 16:01:29;;;;;;;7.47;6.97;;;26.20;79.60;;;;;;4975708;28;20511;-63
2021/07/02 16:03:56;;;;;;;8.80;7.90;;;26.20;76.60;;;;;;4976326;28;20541;-64
2021/07/02 16:06:22;;;;;;;7.40;6.80;;;26.20;81.10;;;;;;4975987;28;20462;-65
2021/07/02 16:08:50;;;;;;;7.03;6.53;;;26.40;80.90;;;;;;4975931;28;20454;-62
2021/07/02 16:11:17;;;;;;;6.83;6.27;;;26.40;78.70;;;;;;4975739;28;20482;-63
2021/07/02 16:13:44;;;;;;;6.93;6.27;;;26.40;80.30;;;;;;4976802;28;20469;-63
2021/07/02 16:16:11;;;;;;;7.20;6.50;;;26.50;81.60;;;;;;4975842;28;20458;-64
2021/07/02 16:18:37;;;;;;;7.63;6.87;;;26.50;80.10;;;;;;4975672;28;20457;-63
2021/07/02 16:21:04;;;;;;;7.03;6.50;;;26.50;82.10;;;;;;4976037;28;20478;-63
2021/07/02 16:23:31;;;;;;;7.03;6.43;;;26.40;78.20;;;;;;4975730;28;20466;-63
2021/07/02 16:26:00;;;;;;;6.83;6.43;;;26.40;78.20;;;;;;4975968;28;20461;-63
2021/07/02 16:28:26;;;;;;;6.50;6.00;;;26.30;77.60;;;;;;4975760;28;20459;-63
2021/07/02 16:30:53;;;;;;;6.67;6.17;;;26.30;79.40;;;;;;4975938;28;20483;-63
2021/07/02 16:33:20;;;;;;;5.63;5.27;;;26.30;79.50;;;;;;4975790;28;20459;-63
2021/07/02 16:35:47;;;;;;;7.60;6.90;;;26.30;79.00;;;;;;4975872;28;20462;-62
2021/07/02 16:38:13;;;;;;;6.37;5.87;;;26.20;79.50;;;;;;4975094;28;20977;-63
2021/07/02 16:40:40;;;;;;;7.20;6.60;;;26.30;79.00;;;;;;4975402;28;20477;-63
2021/07/02 16:43:08;;;;;;;7.80;7.20;;;26.10;79.30;;;;;;4975959;28;20455;-63
2021/07/02 16:45:35;;;;;;;7.03;6.43;;;26.10;77.00;;;;;;4975351;28;20973;-63
2021/07/02 16:48:02;;;;;;;6.20;5.80;;;26.10;77.90;;;;;;4975478;28;20465;-63
2021/07/02 16:50:29;;;;;;;6.87;6.20;;;25.80;74.30;;;;;;4975510;28;20467;-61
2021/07/02 16:52:55;;;;;;;7.00;6.50;;;25.50;80.10;;;;;;4975277;28;20449;-61
2021/07/02 16:55:22;;;;;;;8.67;6.97;;;25.50;79.60;;;;;;4974731;28;20455;-61
2021/07/02 16:57:49;;;;;;;7.90;7.10;;;25.50;80.50;;;;;;4974812;28;20466;-62
2021/07/02 17:00:17;;;;;;;7.60;6.90;;;25.50;83.40;;;;;;4975160;28;20969;-61